createdAt,value
2023-04-06T00:01:03.075Z,0.80
2023-04-06T00:03:29.816Z,0.20
2023-04-06T00:05:56.687Z,0.20
2023-04-06T00:08:24.490Z,0.10
2023-04-06T00:10:51.154Z,0.10
2023-04-06T00:13:17.890Z,0.20
2023-04-06T00:15:44.642Z,0.20
2023-04-06T00:18:11.479Z,0.20
2023-04-06T00:20:38.197Z,0.20
2023-04-06T00:23:05.553Z,0.10
2023-04-06T00:42:43.470Z,0.10
2023-04-06T00:45:11.003Z,0.00
2023-04-06T06:14:09.668Z,-0.10
2023-04-06T06:16:36.641Z,0.90
2023-04-06T06:19:03.304Z,0.90
2023-04-06T06:21:29.997Z,1.00
2023-04-06T06:36:13.503Z,1.10
2023-04-06T06:58:20.408Z,2.00
2023-04-06T08:24:39.743Z,3.70
2023-04-06T08:27:06.480Z,7.50
2023-04-06T08:29:33.114Z,7.50
2023-04-06T08:31:59.982Z,7.50
2023-04-06T08:34:26.697Z,7.50
2023-04-06T08:36:53.333Z,7.30
2023-04-06T08:39:26.166Z,7.20
2023-04-06T08:41:53.861Z,7.30
2023-04-06T08:44:20.839Z,7.30
2023-04-06T08:46:47.621Z,7.40
2023-04-06T08:49:16.997Z,7.50
2023-04-06T08:51:43.865Z,7.30
2023-04-06T08:54:10.955Z,7.30
2023-04-06T08:56:41.052Z,7.50
2023-04-06T08:59:08.850Z,7.40
2023-04-06T09:01:42.015Z,7.60
2023-04-06T09:04:12.392Z,7.60
2023-04-06T09:11:49.826Z,7.80
2023-04-06T09:14:17.574Z,8.20
2023-04-06T09:16:46.208Z,8.30
2023-04-06T09:19:13.584Z,8.40
2023-04-06T09:21:41.073Z,8.50
2023-04-06T09:24:08.990Z,8.70
2023-04-06T09:26:48.825Z,8.50
2023-04-06T09:29:27.508Z,8.40
2023-04-06T09:32:06.375Z,8.20
2023-04-06T09:34:33.803Z,8.40
2023-04-06T09:37:00.712Z,8.50
2023-04-06T09:39:27.482Z,8.30
2023-04-06T09:41:55.257Z,8.50
2023-04-06T09:44:22.195Z,8.50
2023-04-06T09:46:58.740Z,8.70
2023-04-06T09:49:28.532Z,8.60
2023-04-06T09:51:59.367Z,8.20
2023-04-06T09:54:30.475Z,8.30
2023-04-06T09:57:25.731Z,8.20
2023-04-06T10:00:10.290Z,8.30
2023-04-06T10:03:09.634Z,8.50
2023-04-06T10:05:59.665Z,8.70
2023-04-06T10:08:31.814Z,8.80
2023-04-06T10:11:00.172Z,8.60
2023-04-06T10:13:26.921Z,8.50
2023-04-06T10:15:53.985Z,8.40
2023-04-06T10:18:21.635Z,8.60
2023-04-06T10:20:55.879Z,8.90
2023-04-06T10:30:57.277Z,9.20
2023-04-06T10:33:23.971Z,9.30
2023-04-06T10:35:50.796Z,9.50
2023-04-06T10:38:21.943Z,9.40
2023-04-06T11:55:53.593Z,9.60
2023-04-06T11:58:20.323Z,10.80
2023-04-06T12:10:36.533Z,11.00
2023-04-06T12:13:03.371Z,11.00
2023-04-06T12:15:30.199Z,11.30
2023-04-06T12:17:56.911Z,11.50
2023-04-06T12:20:26.954Z,11.50
2023-04-06T12:22:54.050Z,11.70
2023-04-06T12:25:20.900Z,11.90
2023-04-06T12:27:48.083Z,11.80
2023-04-06T13:09:34.297Z,11.80
2023-04-06T13:12:01.893Z,11.00
2023-04-06T13:14:28.497Z,11.30
2023-04-06T13:16:55.825Z,11.70
2023-04-06T13:19:22.617Z,12.10
2023-04-06T13:21:49.453Z,12.50
2023-04-06T13:24:17.227Z,12.20
2023-04-06T13:26:44.518Z,12.20
2023-04-06T13:29:11.342Z,12.40
2023-04-06T13:31:38.929Z,12.80
2023-04-06T13:34:06.202Z,12.90
2023-04-06T13:36:33.321Z,12.80
2023-04-06T13:39:00.244Z,13.40
2023-04-06T13:41:27.506Z,13.50
2023-04-06T13:46:21.585Z,13.70
2023-04-06T13:48:48.934Z,12.80
2023-04-06T13:51:16.278Z,13.00
2023-04-06T13:53:43.039Z,13.30
2023-04-06T13:56:09.704Z,13.30
2023-04-06T13:58:37.229Z,13.60
2023-04-06T14:01:10.503Z,13.60
2023-04-06T14:03:38.158Z,13.50
2023-04-06T14:06:29.619Z,13.20
2023-04-06T14:08:57.987Z,13.30
2023-04-06T14:13:52.039Z,14.80
2023-04-06T14:16:20.626Z,15.60
2023-04-06T14:18:47.514Z,14.70
2023-04-06T14:21:14.306Z,13.70
2023-04-06T14:23:41.319Z,13.10
2023-04-06T14:26:09.532Z,12.80
2023-04-06T14:28:37.345Z,13.10
2023-04-06T14:31:16.128Z,13.00
2023-04-06T14:33:43.617Z,13.10
2023-04-06T14:36:10.675Z,13.20
2023-04-06T14:38:37.458Z,13.10
2023-04-06T14:41:04.130Z,14.10
2023-04-06T14:48:29.594Z,15.10
2023-04-06T17:16:20.839Z,13.40
2023-04-06T17:18:47.564Z,11.00
2023-04-06T17:21:14.489Z,10.80
2023-04-06T17:23:41.482Z,10.50
2023-04-06T17:26:08.471Z,10.40
2023-04-06T17:28:35.590Z,10.40
2023-04-06T17:31:02.649Z,10.20
2023-04-06T17:38:26.388Z,10.20
2023-04-06T17:40:53.016Z,9.90
2023-04-06T17:43:19.741Z,10.00
2023-04-06T17:48:17.944Z,9.90
2023-04-06T17:50:45.357Z,9.40
2023-04-06T17:53:12.228Z,9.30
2023-04-06T17:55:38.971Z,9.10
2023-04-06T17:58:05.945Z,9.10
2023-04-06T18:00:32.664Z,9.00
2023-04-06T18:02:59.384Z,8.90
2023-04-06T18:05:28.994Z,8.70
2023-04-06T18:07:55.823Z,8.60
2023-04-06T18:10:23.106Z,8.40
2023-04-06T18:12:49.938Z,8.20
2023-04-06T18:15:17.047Z,8.10
2023-04-06T18:17:45.460Z,8.00
2023-04-06T18:20:14.173Z,7.90
2023-04-06T18:22:44.723Z,7.70
2023-04-06T18:25:12.801Z,7.60
2023-04-06T18:27:39.621Z,7.50
2023-04-06T18:30:06.810Z,7.40
2023-04-06T18:32:33.569Z,7.30
2023-04-06T18:35:00.467Z,7.50
2023-04-06T18:37:27.131Z,7.40
2023-04-06T18:39:54.558Z,7.20
2023-04-06T18:42:21.334Z,7.10
2023-04-06T18:44:48.682Z,7.00
2023-04-06T18:47:15.669Z,6.90
2023-04-06T18:54:37.032Z,6.70
2023-04-06T18:57:04.744Z,6.30
2023-04-06T18:59:31.660Z,6.20
2023-04-06T19:01:59.278Z,6.10
2023-04-06T19:04:26.994Z,6.00
2023-04-06T19:06:55.272Z,5.90
2023-04-06T19:09:21.895Z,5.80
2023-04-06T19:43:54.247Z,5.70
2023-04-06T19:46:21.629Z,5.10
2023-04-06T19:48:48.386Z,5.10
2023-04-06T19:51:15.046Z,5.10
2023-04-06T19:53:41.742Z,5.10
2023-04-06T19:56:10.053Z,5.10
2023-04-06T19:58:38.045Z,5.20
2023-04-06T20:01:05.057Z,5.30
2023-04-06T20:03:32.370Z,5.30
2023-04-06T20:05:59.421Z,5.40
2023-04-06T20:08:26.093Z,5.40
2023-04-06T20:10:52.750Z,5.50
2023-04-06T20:13:20.834Z,5.50
2023-04-06T20:15:47.604Z,5.70
2023-04-06T20:18:14.216Z,5.80
2023-04-06T20:20:40.983Z,5.80
2023-04-06T20:23:07.678Z,5.70
2023-04-06T20:25:34.346Z,5.70
2023-04-06T20:28:01.059Z,5.60
2023-04-06T20:30:27.788Z,5.70
2023-04-06T20:32:54.649Z,5.70
2023-04-06T20:35:21.435Z,5.70
2023-04-06T20:37:48.259Z,5.70
2023-04-06T20:40:14.956Z,5.70
2023-04-06T20:42:41.827Z,5.60
2023-04-06T20:45:09.286Z,5.70
2023-04-06T20:47:35.894Z,5.70
2023-04-06T20:50:02.708Z,5.80
2023-04-06T20:52:29.321Z,5.90
2023-04-06T20:54:56.354Z,5.80
2023-04-06T20:57:24.215Z,5.80
2023-04-06T20:59:50.944Z,5.80
2023-04-06T21:02:17.977Z,5.90
2023-04-06T21:04:45.250Z,6.00
2023-04-06T21:07:12.130Z,6.00
2023-04-06T21:09:40.392Z,6.00
2023-04-06T21:12:07.904Z,6.00
2023-04-06T21:14:34.901Z,5.90
2023-04-06T21:17:01.674Z,5.90
2023-04-06T21:19:28.308Z,5.90
2023-04-06T21:21:54.993Z,5.90
2023-04-06T21:24:21.658Z,5.90
2023-04-06T21:26:48.297Z,5.90
2023-04-06T21:29:14.890Z,5.90
2023-04-06T21:31:42.370Z,5.90
2023-04-06T21:34:10.859Z,5.90
2023-04-06T21:36:38.261Z,6.00
2023-04-06T21:39:06.092Z,6.00
2023-04-06T21:41:33.724Z,6.00
2023-04-06T21:44:00.604Z,6.00
2023-04-06T21:46:27.288Z,6.00
2023-04-06T21:48:53.932Z,6.00
2023-04-06T21:51:22.186Z,6.10
2023-04-06T21:53:49.361Z,6.10
2023-04-06T21:56:22.938Z,6.10
2023-04-06T21:58:50.512Z,6.10
2023-04-06T22:01:17.536Z,6.10
2023-04-06T22:03:46.110Z,6.10
2023-04-06T22:06:13.137Z,6.00
2023-04-06T22:08:39.822Z,6.00
2023-04-06T22:11:11.642Z,6.00
2023-04-06T22:13:38.946Z,6.00
2023-04-06T22:16:06.360Z,5.90
2023-04-06T22:18:33.513Z,5.90
2023-04-06T22:21:00.989Z,5.90
2023-04-06T22:23:27.683Z,5.90
2023-04-06T22:25:54.345Z,5.80
2023-04-06T22:28:20.990Z,5.80
2023-04-06T22:30:48.124Z,5.80
2023-04-06T22:33:15.065Z,5.80
2023-04-06T22:35:41.861Z,5.80
2023-04-06T22:38:08.598Z,5.80
2023-04-06T22:40:35.509Z,5.80
2023-04-06T22:43:02.213Z,5.80
2023-04-06T22:45:28.918Z,5.70
2023-04-06T22:47:55.681Z,5.70
2023-04-06T22:50:22.478Z,5.70
2023-04-06T22:52:49.249Z,5.70
2023-04-06T22:55:16.217Z,5.60
2023-04-06T22:57:42.817Z,5.50
2023-04-06T23:00:09.980Z,5.50
2023-04-06T23:02:37.062Z,5.50
2023-04-06T23:05:03.812Z,5.50
2023-04-06T23:07:32.481Z,5.50
2023-04-06T23:09:59.389Z,5.50
2023-04-06T23:12:26.288Z,5.50
2023-04-06T23:14:53.084Z,5.40
2023-04-06T23:17:19.726Z,5.30
2023-04-06T23:19:46.332Z,5.20
2023-04-06T23:22:13.156Z,5.20
2023-04-06T23:24:39.761Z,5.00
2023-04-06T23:27:06.479Z,5.10
2023-04-06T23:56:31.654Z,5.00
2023-04-06T23:58:58.426Z,4.60
